Terminal Aerodrome Forecast
Issued by NWS Sioux Falls, SD

Home | Current Version | Previous Version | Text Only | Print | Product List | Glossary On
Versions: 1 2 3 4 5 6 7 8 9 10 11 12 13 14 15 16 17 18 19 20
404
FTUS43 KFSD 041029 AAA
TAFHON
TAF AMD
KHON 041029Z 0410/0506 24006KT P6SM BKN070 OVC120
      TEMPO 0410/0411 2SM -SN BKN050
     FM041100 22008KT P6SM BKN060
     FM041500 30008KT P6SM SCT060
     FM042300 VRB04KT P6SM BKN120=

USA.gov is the U.S. government's official web portal to all federal, state and local government web resources and services.